createdAt,value
2019-03-19T00:02:12.390Z,326.43
2019-03-19T00:04:39.956Z,395.60
2019-03-19T00:07:07.450Z,368.40
2019-03-19T00:09:34.966Z,392.03
2019-03-19T00:12:02.943Z,381.67
2019-03-19T00:14:30.906Z,384.30
2019-03-19T00:16:58.754Z,381.13
2019-03-19T00:19:26.170Z,398.47
2019-03-19T00:21:53.725Z,356.10
2019-03-19T00:24:50.127Z,376.50
2019-03-19T00:27:17.752Z,367.10
2019-03-19T00:29:46.094Z,376.53
2019-03-19T00:32:14.477Z,305.90
2019-03-19T00:34:42.616Z,367.03
2019-03-19T00:37:09.964Z,362.83
2019-03-19T00:39:38.670Z,389.33
2019-03-19T00:42:06.195Z,359.40
2019-03-19T00:44:33.668Z,424.70
2019-03-19T00:47:01.154Z,317.93
2019-03-19T00:49:31.487Z,358.03
2019-03-19T00:51:58.974Z,313.33
2019-03-19T00:54:26.812Z,357.17
2019-03-19T00:56:54.678Z,305.77
2019-03-19T00:59:22.333Z,402.43
2019-03-19T01:01:49.985Z,320.23
2019-03-19T01:04:17.653Z,338.83
2019-03-19T01:06:45.173Z,309.13
2019-03-19T01:09:13.015Z,361.40
2019-03-19T01:11:40.896Z,271.77
2019-03-19T01:14:08.809Z,353.23
2019-03-19T01:16:36.680Z,300.20
2019-03-19T01:19:04.381Z,368.10
2019-03-19T01:24:36.925Z,342.40
2019-03-19T01:27:04.411Z,327.27
2019-03-19T01:29:31.794Z,361.13
2019-03-19T01:31:59.318Z,306.50
2019-03-19T01:34:26.897Z,372.33
2019-03-19T01:36:54.368Z,320.53
2019-03-19T01:39:21.726Z,377.23
2019-03-19T01:41:49.231Z,392.40
2019-03-19T01:44:16.711Z,378.70
2019-03-19T01:46:44.292Z,317.20
2019-03-19T01:49:11.571Z,369.30
2019-03-19T01:51:39.170Z,329.50
2019-03-19T01:54:06.773Z,354.83
2019-03-19T01:56:34.321Z,321.67
2019-03-19T01:59:01.785Z,353.93
2019-03-19T02:01:29.377Z,300.73
2019-03-19T02:03:57.003Z,361.77
2019-03-19T02:06:24.804Z,343.43
2019-03-19T02:08:52.233Z,299.53
2019-03-19T02:11:19.651Z,340.10
2019-03-19T02:13:47.302Z,362.17
2019-03-19T02:16:15.018Z,306.50
2019-03-19T02:18:42.540Z,341.37
2019-03-19T02:21:10.081Z,326.30
2019-03-19T02:23:37.582Z,276.47
2019-03-19T02:26:15.661Z,313.13
2019-03-19T02:28:34.399Z,339.10
2019-03-19T02:31:01.945Z,318.73
2019-03-19T02:33:29.532Z,296.83
2019-03-19T02:35:56.980Z,369.40
2019-03-19T02:38:24.468Z,331.40
2019-03-19T02:40:52.174Z,267.33
2019-03-19T02:43:22.717Z,352.33
2019-03-19T02:45:49.185Z,279.07
2019-03-19T02:48:16.825Z,271.00
2019-03-19T02:50:44.228Z,347.13
2019-03-19T02:53:11.708Z,287.13
2019-03-19T02:55:39.169Z,273.00
2019-03-19T02:58:06.563Z,294.93
2019-03-19T03:00:34.841Z,303.70
2019-03-19T03:03:02.573Z,252.10
2019-03-19T03:05:30.100Z,328.07
2019-03-19T03:07:57.675Z,251.03
2019-03-19T03:10:25.433Z,273.33
2019-03-19T03:12:52.980Z,276.83
2019-03-19T03:15:20.711Z,255.97
2019-03-19T03:17:48.164Z,289.10
2019-03-19T03:20:16.676Z,261.23
2019-03-19T03:22:44.316Z,305.20
2019-03-19T03:25:12.237Z,217.80
2019-03-19T03:27:39.937Z,220.23
2019-03-19T03:30:10.043Z,241.10
2019-03-19T03:32:37.471Z,231.80
2019-03-19T03:35:05.504Z,228.20
2019-03-19T03:37:33.022Z,300.23
2019-03-19T03:40:00.558Z,309.13
2019-03-19T03:42:28.348Z,232.03
2019-03-19T03:44:55.851Z,259.97
2019-03-19T03:47:23.293Z,250.17
2019-03-19T03:49:50.691Z,279.93
2019-03-19T03:52:18.136Z,236.73
2019-03-19T03:54:45.598Z,268.87
2019-03-19T03:57:12.940Z,226.57
2019-03-19T03:59:43.421Z,316.27
2019-03-19T04:02:10.988Z,231.10
2019-03-19T04:04:38.425Z,284.83
2019-03-19T04:07:05.924Z,220.53
2019-03-19T04:09:33.483Z,278.17
2019-03-19T04:12:00.955Z,249.03
2019-03-19T04:14:28.291Z,277.73
2019-03-19T04:16:55.925Z,214.67
2019-03-19T04:19:24.079Z,251.23
2019-03-19T04:21:51.601Z,205.27
2019-03-19T04:24:19.068Z,267.97
2019-03-19T04:26:47.339Z,227.93
2019-03-19T04:29:14.762Z,264.93
2019-03-19T04:31:42.823Z,291.90
2019-03-19T04:34:11.120Z,279.17
2019-03-19T04:36:38.506Z,230.53
2019-03-19T04:39:07.628Z,277.10
2019-03-19T04:41:36.837Z,225.73
2019-03-19T04:44:04.697Z,253.23
2019-03-19T04:46:32.120Z,212.50
2019-03-19T04:48:59.638Z,264.33
2019-03-19T04:51:27.072Z,239.37
2019-03-19T04:53:54.490Z,265.60
2019-03-19T04:56:21.910Z,252.47
2019-03-19T04:58:49.481Z,231.67
2019-03-19T05:01:17.578Z,247.77
2019-03-19T05:03:47.081Z,223.10
2019-03-19T05:06:14.505Z,258.57
2019-03-19T05:08:41.863Z,305.67
2019-03-19T05:11:09.301Z,260.30
2019-03-19T05:13:36.675Z,226.37
2019-03-19T05:16:04.220Z,226.93
2019-03-19T05:18:31.689Z,278.57
2019-03-19T05:20:59.423Z,265.73
2019-03-19T05:23:26.726Z,231.83
2019-03-19T05:25:54.118Z,232.90
2019-03-19T05:28:23.558Z,269.60
2019-03-19T05:30:50.879Z,232.70
2019-03-19T05:33:19.482Z,247.07
2019-03-19T05:35:47.748Z,221.97
2019-03-19T05:38:15.148Z,251.67
2019-03-19T05:40:42.823Z,272.90
2019-03-19T05:43:10.236Z,239.67
2019-03-19T05:45:37.804Z,263.60
2019-03-19T05:48:05.478Z,268.73
2019-03-19T05:50:32.797Z,235.30
2019-03-19T05:53:00.355Z,252.93
2019-03-19T05:55:27.907Z,231.33
2019-03-19T05:57:55.243Z,231.87
2019-03-19T06:00:24.246Z,235.67
2019-03-19T06:02:53.038Z,275.50
2019-03-19T06:05:21.379Z,286.77
2019-03-19T06:07:51.882Z,254.03
2019-03-19T06:10:19.235Z,233.23
2019-03-19T06:12:46.725Z,230.63
2019-03-19T06:15:16.105Z,252.80
2019-03-19T06:17:43.645Z,305.17
2019-03-19T06:20:11.678Z,245.80
2019-03-19T06:22:40.963Z,245.27
2019-03-19T06:25:08.801Z,230.33
2019-03-19T06:27:36.134Z,252.57
2019-03-19T06:30:06.696Z,249.97
2019-03-19T06:32:34.834Z,257.10
2019-03-19T06:35:02.566Z,265.70
2019-03-19T06:38:31.704Z,259.40
2019-03-19T06:41:00.043Z,241.73
2019-03-19T06:43:29.435Z,255.50
2019-03-19T06:45:57.351Z,236.10
2019-03-19T06:48:24.710Z,264.47
2019-03-19T06:50:52.370Z,226.10
2019-03-19T06:53:19.816Z,235.30
2019-03-19T06:55:47.482Z,270.77
2019-03-19T06:58:14.938Z,239.30
2019-03-19T07:00:42.499Z,280.27
2019-03-19T07:03:10.028Z,239.60
2019-03-19T07:05:37.718Z,323.60
2019-03-19T07:08:05.313Z,241.60
2019-03-19T07:10:33.171Z,239.90
2019-03-19T07:13:00.775Z,244.40
2019-03-19T07:15:28.341Z,260.87
2019-03-19T07:17:56.579Z,242.87
2019-03-19T07:20:23.927Z,258.90
2019-03-19T07:22:51.292Z,234.13
2019-03-19T07:25:18.662Z,243.27
2019-03-19T07:27:46.273Z,228.57
2019-03-19T07:30:15.531Z,251.93
2019-03-19T07:32:43.279Z,237.10
2019-03-19T07:35:11.064Z,237.00
2019-03-19T07:37:39.778Z,264.27
2019-03-19T07:40:10.012Z,247.33
2019-03-19T07:42:37.448Z,256.10
2019-03-19T07:45:07.342Z,255.60
2019-03-19T07:47:34.796Z,224.47
2019-03-19T07:50:02.499Z,246.77
2019-03-19T07:52:30.094Z,227.33
2019-03-19T07:54:57.577Z,257.97
2019-03-19T07:57:26.045Z,253.50
2019-03-19T07:59:53.418Z,283.23
2019-03-19T08:02:21.116Z,254.03
2019-03-19T08:04:48.638Z,263.10
2019-03-19T08:07:16.059Z,249.93
2019-03-19T08:09:43.552Z,303.23
2019-03-19T08:12:11.800Z,250.67
2019-03-19T08:14:39.507Z,366.03
2019-03-19T08:17:06.968Z,247.27
2019-03-19T08:19:34.471Z,275.17
2019-03-19T08:22:01.779Z,270.80
2019-03-19T08:24:30.464Z,291.60
2019-03-19T08:26:57.996Z,227.83
2019-03-19T08:29:25.459Z,282.47
2019-03-19T08:31:52.803Z,258.90
2019-03-19T08:34:20.438Z,277.13
2019-03-19T08:36:49.001Z,239.73
2019-03-19T08:39:16.481Z,312.67
2019-03-19T08:41:43.965Z,248.03
2019-03-19T08:44:11.256Z,271.50
2019-03-19T08:46:38.619Z,278.70
2019-03-19T08:49:06.292Z,288.33
2019-03-19T08:51:33.731Z,241.47
2019-03-19T08:54:01.272Z,290.57
2019-03-19T08:56:28.814Z,270.27
2019-03-19T08:59:05.623Z,264.57
2019-03-19T09:01:25.647Z,252.60
2019-03-19T09:03:53.023Z,276.87
2019-03-19T09:06:20.663Z,264.83
2019-03-19T09:08:50.293Z,267.20
2019-03-19T09:11:17.817Z,266.03
2019-03-19T09:13:45.420Z,261.93
2019-03-19T09:16:13.178Z,242.77
2019-03-19T09:18:40.629Z,249.80
2019-03-19T09:21:08.218Z,265.30
2019-03-19T09:23:35.715Z,318.83
2019-03-19T09:26:03.146Z,252.20
2019-03-19T09:28:30.660Z,239.93
2019-03-19T09:30:58.232Z,229.53
2019-03-19T09:33:25.740Z,286.30
2019-03-19T09:35:53.245Z,238.27
2019-03-19T09:38:20.897Z,240.20
2019-03-19T09:40:48.404Z,258.30
2019-03-19T09:43:16.907Z,267.47
2019-03-19T09:45:44.472Z,246.10
2019-03-19T09:48:11.805Z,247.53
2019-03-19T09:50:39.389Z,267.20
2019-03-19T09:53:06.957Z,229.73
2019-03-19T09:55:34.638Z,324.43
2019-03-19T09:58:02.221Z,276.53
2019-03-19T10:00:29.749Z,245.83
2019-03-19T10:02:57.234Z,279.27
2019-03-19T10:05:24.873Z,237.47
2019-03-19T10:07:52.656Z,263.67
2019-03-19T10:10:20.257Z,275.07
2019-03-19T10:12:47.993Z,281.47
2019-03-19T10:15:16.161Z,268.63
2019-03-19T10:17:43.793Z,253.40
2019-03-19T10:20:12.622Z,297.30
2019-03-19T10:22:40.312Z,249.50
2019-03-19T10:25:08.853Z,255.90
2019-03-19T10:27:36.656Z,254.40
2019-03-19T10:30:08.959Z,275.17
2019-03-19T10:32:36.577Z,360.27
2019-03-19T10:35:04.675Z,273.33
2019-03-19T10:37:32.101Z,251.77
2019-03-19T10:39:59.667Z,282.53
2019-03-19T10:42:27.059Z,263.60
2019-03-19T10:44:54.614Z,286.93
2019-03-19T10:47:22.206Z,249.37
2019-03-19T10:49:49.671Z,312.53
2019-03-19T10:52:17.030Z,234.93
2019-03-19T10:54:45.621Z,325.57
2019-03-19T10:57:13.137Z,251.40
2019-03-19T10:59:48.920Z,317.40
2019-03-19T11:02:10.021Z,254.87
2019-03-19T11:04:37.738Z,303.67
2019-03-19T11:07:06.268Z,235.43
2019-03-19T11:09:33.594Z,318.97
2019-03-19T11:12:00.886Z,252.73
2019-03-19T11:14:28.472Z,289.90
2019-03-19T11:16:56.141Z,267.60
2019-03-19T11:19:23.915Z,338.13
2019-03-19T11:21:51.594Z,318.47
2019-03-19T11:24:19.293Z,322.50
2019-03-19T11:26:47.035Z,233.70
2019-03-19T11:29:14.556Z,317.20
2019-03-19T11:31:42.013Z,256.43
2019-03-19T11:34:09.582Z,319.30
2019-03-19T11:36:37.184Z,268.87
2019-03-19T11:39:07.909Z,299.07
2019-03-19T11:41:35.527Z,355.20
2019-03-19T11:44:04.365Z,289.43
2019-03-19T11:46:31.821Z,240.17
2019-03-19T11:48:59.538Z,279.10
2019-03-19T11:51:27.437Z,250.93
2019-03-19T11:53:54.912Z,261.17
2019-03-19T11:56:25.214Z,256.20
2019-03-19T11:58:55.731Z,269.37
2019-03-19T12:01:23.387Z,253.50
2019-03-19T12:03:51.151Z,251.90
2019-03-19T12:06:19.031Z,255.37
2019-03-19T12:08:46.680Z,247.40
2019-03-19T12:11:14.186Z,249.97
2019-03-19T12:13:41.796Z,267.20
2019-03-19T12:16:09.505Z,259.67
2019-03-19T12:18:37.679Z,275.57
2019-03-19T12:21:05.321Z,217.13
2019-03-19T12:23:32.926Z,238.90
2019-03-19T12:26:00.830Z,236.03
2019-03-19T12:28:39.017Z,250.47
2019-03-19T12:30:58.092Z,240.93
2019-03-19T12:33:26.681Z,255.47
2019-03-19T12:35:54.394Z,242.30
2019-03-19T12:38:21.935Z,233.07
2019-03-19T12:40:49.315Z,240.27
2019-03-19T12:43:17.007Z,238.57
2019-03-19T12:45:44.664Z,258.53
2019-03-19T12:48:12.252Z,227.07
2019-03-19T12:50:39.830Z,341.87
2019-03-19T12:53:07.436Z,230.93
2019-03-19T12:55:35.010Z,287.77
2019-03-19T12:58:02.875Z,242.80
2019-03-19T13:00:34.549Z,271.57
2019-03-19T13:03:01.146Z,258.07
2019-03-19T13:05:28.956Z,235.27
2019-03-19T13:07:56.567Z,241.77
2019-03-19T13:10:24.257Z,248.47
2019-03-19T13:12:52.603Z,224.10
2019-03-19T13:15:25.009Z,247.77
2019-03-19T13:17:52.760Z,240.53
2019-03-19T13:20:20.157Z,277.57
2019-03-19T13:22:47.814Z,261.40
2019-03-19T13:25:16.262Z,232.53
2019-03-19T13:27:44.007Z,289.03
2019-03-19T13:30:14.617Z,236.90
2019-03-19T13:32:42.294Z,332.83
2019-03-19T13:35:09.959Z,245.10
2019-03-19T13:37:37.623Z,307.23
2019-03-19T13:40:05.380Z,292.27
2019-03-19T13:42:33.002Z,242.90
2019-03-19T13:45:00.861Z,262.17
2019-03-19T13:47:28.392Z,256.00
2019-03-19T13:49:57.042Z,280.47
2019-03-19T13:52:24.488Z,287.80
2019-03-19T13:54:52.192Z,322.20
2019-03-19T13:57:19.741Z,259.07
2019-03-19T13:59:47.265Z,362.47
2019-03-19T14:02:14.968Z,231.90
2019-03-19T14:04:43.076Z,287.47
2019-03-19T14:07:10.577Z,236.40
2019-03-19T14:09:38.450Z,295.53
2019-03-19T14:12:06.889Z,237.60
2019-03-19T14:15:05.064Z,282.53
2019-03-19T14:17:33.050Z,242.03
2019-03-19T14:20:04.435Z,247.23
2019-03-19T14:22:32.225Z,223.57
2019-03-19T14:24:59.929Z,242.07
2019-03-19T14:27:28.279Z,289.87
2019-03-19T14:29:56.310Z,248.73
2019-03-19T14:32:23.771Z,246.53
2019-03-19T14:34:51.319Z,305.93
2019-03-19T14:37:19.031Z,271.53
2019-03-19T14:39:46.555Z,290.67
2019-03-19T14:42:13.876Z,340.17
2019-03-19T14:44:41.559Z,275.40
2019-03-19T14:47:09.212Z,240.40
2019-03-19T14:49:46.369Z,288.37
2019-03-19T14:52:06.249Z,244.37
2019-03-19T14:54:33.723Z,273.93
2019-03-19T14:57:01.209Z,224.60
2019-03-19T14:59:28.904Z,282.87
2019-03-19T15:01:56.877Z,251.70
2019-03-19T15:04:26.045Z,283.10
2019-03-19T15:06:53.574Z,245.90
2019-03-19T15:09:22.434Z,279.13
2019-03-19T15:11:53.324Z,260.77
2019-03-19T15:14:20.990Z,298.37
2019-03-19T15:16:48.537Z,236.03
2019-03-19T15:19:16.491Z,347.27
2019-03-19T15:21:44.066Z,252.50
2019-03-19T15:24:11.563Z,273.40
2019-03-19T15:26:39.059Z,234.07
2019-03-19T15:29:06.470Z,290.73
2019-03-19T15:31:34.121Z,255.03
2019-03-19T15:34:02.257Z,274.60
2019-03-19T15:36:29.602Z,250.53
2019-03-19T15:38:57.892Z,277.83
2019-03-19T15:41:25.599Z,241.30
2019-03-19T15:43:52.965Z,235.80
2019-03-19T15:46:21.279Z,256.63
2019-03-19T15:48:49.437Z,252.93
2019-03-19T15:51:17.035Z,345.70
2019-03-19T15:53:44.483Z,244.63
2019-03-19T15:56:12.077Z,240.73
2019-03-19T15:58:39.543Z,256.47
2019-03-19T16:01:07.402Z,291.17
2019-03-19T16:03:35.203Z,238.17
2019-03-19T16:06:02.936Z,250.37
2019-03-19T16:08:31.460Z,301.53
2019-03-19T16:11:03.103Z,252.93
2019-03-19T16:13:31.089Z,265.70
2019-03-19T16:15:58.692Z,249.90
2019-03-19T16:18:26.235Z,266.63
2019-03-19T16:20:54.744Z,251.43
2019-03-19T16:23:24.018Z,295.70
2019-03-19T16:25:52.451Z,251.03
2019-03-19T16:28:21.695Z,359.63
2019-03-19T16:30:49.830Z,248.60
2019-03-19T16:33:17.458Z,259.90
2019-03-19T16:35:44.961Z,282.53
2019-03-19T16:38:12.958Z,259.53
2019-03-19T16:40:41.743Z,250.57
2019-03-19T16:43:09.326Z,237.30
2019-03-19T16:45:36.980Z,252.07
2019-03-19T16:48:04.743Z,256.97
2019-03-19T16:50:32.497Z,274.03
2019-03-19T16:53:00.247Z,275.40
2019-03-19T16:55:28.528Z,261.63
2019-03-19T16:57:56.119Z,287.37
2019-03-19T17:00:23.573Z,379.93
2019-03-19T17:02:51.065Z,284.77
2019-03-19T17:05:18.862Z,255.90
2019-03-19T17:07:47.266Z,283.80
2019-03-19T17:10:16.434Z,315.20
2019-03-19T17:12:44.347Z,272.40
2019-03-19T17:15:14.263Z,285.37
2019-03-19T17:17:41.720Z,268.37
2019-03-19T17:20:10.811Z,290.33
2019-03-19T17:22:39.219Z,276.57
2019-03-19T17:25:09.248Z,291.27
2019-03-19T17:27:37.964Z,278.83
2019-03-19T17:30:12.914Z,275.40
2019-03-19T17:32:42.453Z,255.57
2019-03-19T17:35:10.255Z,289.27
2019-03-19T17:37:39.874Z,306.43
2019-03-19T17:40:08.429Z,295.30
2019-03-19T17:42:37.403Z,356.63
2019-03-19T17:45:05.601Z,370.73
2019-03-19T17:47:33.832Z,293.13
2019-03-19T17:50:01.411Z,276.77
2019-03-19T17:52:29.167Z,255.90
2019-03-19T17:54:56.621Z,284.13
2019-03-19T17:57:26.224Z,287.60
2019-03-19T17:59:53.985Z,324.33
2019-03-19T18:02:57.004Z,287.23
2019-03-19T18:05:24.865Z,287.67
2019-03-19T18:07:52.540Z,308.93
2019-03-19T18:10:20.378Z,277.00
2019-03-19T18:12:51.263Z,254.63
2019-03-19T18:15:19.132Z,289.80
2019-03-19T18:17:47.120Z,316.57
2019-03-19T18:20:15.013Z,292.63
2019-03-19T18:22:43.017Z,272.87
2019-03-19T18:25:11.479Z,347.77
2019-03-19T18:27:39.067Z,284.90
2019-03-19T18:30:08.894Z,261.13
2019-03-19T18:32:36.741Z,279.73
2019-03-19T18:35:05.029Z,316.80
2019-03-19T18:37:32.675Z,274.93
2019-03-19T18:40:00.174Z,305.50
2019-03-19T18:42:27.686Z,281.33
2019-03-19T18:44:55.194Z,324.87
2019-03-19T18:47:22.753Z,262.80
2019-03-19T18:49:50.374Z,340.73
2019-03-19T18:52:18.227Z,349.13
2019-03-19T18:54:46.121Z,323.37
2019-03-19T18:57:13.772Z,329.67
2019-03-19T18:59:41.367Z,345.93
2019-03-19T19:02:09.229Z,349.87
2019-03-19T19:04:36.648Z,331.73
2019-03-19T19:07:05.221Z,318.97
2019-03-19T19:09:32.700Z,353.87
2019-03-19T19:12:00.324Z,303.90
2019-03-19T19:14:28.762Z,327.20
2019-03-19T19:16:56.835Z,286.37
2019-03-19T19:19:24.746Z,375.70
2019-03-19T19:21:53.009Z,323.43
2019-03-19T19:24:20.790Z,345.77
2019-03-19T19:26:48.401Z,310.20
2019-03-19T19:29:16.554Z,352.40
2019-03-19T19:31:44.451Z,315.43
2019-03-19T19:34:15.195Z,420.73
2019-03-19T19:36:43.074Z,309.27
2019-03-19T19:39:10.668Z,357.93
2019-03-19T19:41:38.306Z,305.60
2019-03-19T19:44:07.413Z,337.93
2019-03-19T19:46:34.882Z,293.20
2019-03-19T19:49:02.645Z,337.97
2019-03-19T19:51:30.261Z,288.30
2019-03-19T19:53:57.643Z,320.77
2019-03-19T19:56:25.113Z,322.23
2019-03-19T19:58:53.550Z,302.57
2019-03-19T20:01:22.094Z,294.27
2019-03-19T20:03:49.749Z,324.13
2019-03-19T20:06:17.484Z,323.93
2019-03-19T20:09:10.808Z,319.97
2019-03-19T20:11:38.752Z,354.73
2019-03-19T20:14:07.144Z,356.00
2019-03-19T20:16:34.675Z,357.53
2019-03-19T20:19:02.301Z,364.97
2019-03-19T20:21:30.963Z,313.23
2019-03-19T20:23:58.651Z,361.40
2019-03-19T20:26:26.137Z,347.37
2019-03-19T20:28:53.766Z,339.70
2019-03-19T20:31:21.519Z,332.83
2019-03-19T20:33:48.993Z,328.00
2019-03-19T20:36:16.411Z,327.60
2019-03-19T20:38:43.845Z,329.70
2019-03-19T20:41:11.508Z,339.53
2019-03-19T20:43:39.201Z,324.00
2019-03-19T20:46:07.069Z,332.13
2019-03-19T20:48:35.980Z,408.03
2019-03-19T20:51:03.676Z,364.60
2019-03-19T20:53:31.523Z,342.97
2019-03-19T20:55:59.097Z,352.63
2019-03-19T20:58:26.656Z,328.83
2019-03-19T21:00:54.154Z,362.83
2019-03-19T21:03:21.716Z,354.73
2019-03-19T21:05:49.436Z,395.83
2019-03-19T21:08:17.208Z,389.07
2019-03-19T21:10:44.634Z,352.00
2019-03-19T21:13:12.318Z,370.70
2019-03-19T21:15:40.003Z,353.47
2019-03-19T21:18:07.607Z,361.80
2019-03-19T21:20:35.097Z,382.60
2019-03-19T21:23:02.567Z,385.20
2019-03-19T21:25:29.996Z,396.93
2019-03-19T21:27:59.576Z,383.37
2019-03-19T21:30:27.235Z,359.73
2019-03-19T21:32:54.713Z,384.63
2019-03-19T21:35:23.659Z,377.90
2019-03-19T21:37:51.747Z,390.57
2019-03-19T21:40:19.650Z,415.33
2019-03-19T21:42:47.253Z,381.77
2019-03-19T21:45:15.028Z,406.70
2019-03-19T21:47:42.538Z,394.03
2019-03-19T21:50:11.948Z,372.37
2019-03-19T21:52:39.535Z,372.33
2019-03-19T21:55:07.479Z,383.23
2019-03-19T21:57:35.212Z,429.57
2019-03-19T22:00:05.232Z,397.20
2019-03-19T22:02:34.593Z,377.13
2019-03-19T22:05:03.534Z,388.23
2019-03-19T22:07:31.447Z,362.53
2019-03-19T22:09:58.946Z,357.27
2019-03-19T22:12:26.368Z,367.63
2019-03-19T22:14:55.969Z,380.40
2019-03-19T22:17:24.759Z,378.73
2019-03-19T22:19:52.419Z,438.17
2019-03-19T22:22:20.091Z,379.70
2019-03-19T22:24:47.539Z,386.33
2019-03-19T22:27:15.032Z,346.60
2019-03-19T22:29:42.873Z,396.07
2019-03-19T22:32:10.367Z,357.77
2019-03-19T22:34:38.089Z,455.37
2019-03-19T22:37:06.119Z,364.20
2019-03-19T22:39:35.189Z,398.77
2019-03-19T22:42:03.195Z,374.70
2019-03-19T22:44:31.341Z,405.37
2019-03-19T22:46:59.363Z,367.50
2019-03-19T22:49:27.438Z,415.90
2019-03-19T22:51:55.544Z,382.67
2019-03-19T22:54:23.581Z,399.37
2019-03-19T22:56:51.549Z,380.10
2019-03-19T22:59:19.587Z,432.80
2019-03-19T23:01:47.606Z,397.93
2019-03-19T23:04:26.747Z,442.47
2019-03-19T23:06:45.704Z,425.93
2019-03-19T23:09:13.850Z,459.73
2019-03-19T23:11:41.994Z,413.63
2019-03-19T23:14:09.988Z,445.80
2019-03-19T23:16:38.029Z,385.13
2019-03-19T23:19:06.105Z,411.83
2019-03-19T23:21:34.281Z,406.53
2019-03-19T23:24:02.367Z,433.77
2019-03-19T23:26:30.519Z,385.20
2019-03-19T23:28:58.492Z,406.37
2019-03-19T23:31:27.087Z,414.43
2019-03-19T23:33:54.661Z,402.07
2019-03-19T23:36:22.267Z,394.73
2019-03-19T23:38:49.861Z,411.60
2019-03-19T23:41:17.235Z,395.77
2019-03-19T23:43:44.713Z,449.00
2019-03-19T23:46:12.383Z,415.90
2019-03-19T23:48:39.981Z,403.03
2019-03-19T23:51:07.528Z,414.53
2019-03-19T23:53:35.235Z,409.50
2019-03-19T23:56:02.979Z,421.93
2019-03-19T23:58:30.554Z,408.30
